sensor_id;sensor_type;location;lat;lon;timestamp;temperature;humidity
8095;DHT22;4090;49.270;8.696;2023-06-14T00:02:07;24.70;56.40
8095;DHT22;4090;49.270;8.696;2023-06-14T00:04:49;24.70;56.80
8095;DHT22;4090;49.270;8.696;2023-06-14T00:07:35;24.70;56.70
8095;DHT22;4090;49.270;8.696;2023-06-14T00:10:19;24.70;57.00
8095;DHT22;4090;49.270;8.696;2023-06-14T00:13:01;24.60;56.90
8095;DHT22;4090;49.270;8.696;2023-06-14T00:15:42;24.60;57.00
8095;DHT22;4090;49.270;8.696;2023-06-14T00:18:24;24.60;57.20
8095;DHT22;4090;49.270;8.696;2023-06-14T00:21:07;24.50;57.00
8095;DHT22;4090;49.270;8.696;2023-06-14T00:23:49;24.40;57.20
8095;DHT22;4090;49.270;8.696;2023-06-14T00:26:32;24.40;57.20
8095;DHT22;4090;49.270;8.696;2023-06-14T00:29:14;24.40;57.30
8095;DHT22;4090;49.270;8.696;2023-06-14T00:31:56;24.40;57.50
8095;DHT22;4090;49.270;8.696;2023-06-14T00:34:39;24.30;57.30
8095;DHT22;4090;49.270;8.696;2023-06-14T00:37:22;24.30;57.50
8095;DHT22;4090;49.270;8.696;2023-06-14T00:40:06;24.20;57.70
8095;DHT22;4090;49.270;8.696;2023-06-14T00:42:49;24.20;57.80
8095;DHT22;4090;49.270;8.696;2023-06-14T00:45:31;24.20;57.80
8095;DHT22;4090;49.270;8.696;2023-06-14T00:48:16;24.20;58.10
8095;DHT22;4090;49.270;8.696;2023-06-14T00:50:59;24.10;58.20
8095;DHT22;4090;49.270;8.696;2023-06-14T00:53:44;24.10;58.20
8095;DHT22;4090;49.270;8.696;2023-06-14T00:56:27;24.10;58.30
8095;DHT22;4090;49.270;8.696;2023-06-14T00:59:11;24.10;58.30
8095;DHT22;4090;49.270;8.696;2023-06-14T01:01:53;24.00;58.40
8095;DHT22;4090;49.270;8.696;2023-06-14T01:04:53;24.00;58.60
8095;DHT22;4090;49.270;8.696;2023-06-14T01:07:46;24.00;58.30
8095;DHT22;4090;49.270;8.696;2023-06-14T01:10:36;23.90;58.50
8095;DHT22;4090;49.270;8.696;2023-06-14T01:13:25;23.90;58.50
8095;DHT22;4090;49.270;8.696;2023-06-14T01:16:10;23.90;58.60
8095;DHT22;4090;49.270;8.696;2023-06-14T01:18:53;23.90;58.70
8095;DHT22;4090;49.270;8.696;2023-06-14T01:21:36;23.90;58.80
8095;DHT22;4090;49.270;8.696;2023-06-14T01:24:23;23.90;58.80
8095;DHT22;4090;49.270;8.696;2023-06-14T01:27:13;23.90;58.80
8095;DHT22;4090;49.270;8.696;2023-06-14T01:29:56;23.80;58.90
8095;DHT22;4090;49.270;8.696;2023-06-14T01:32:38;23.80;59.00
8095;DHT22;4090;49.270;8.696;2023-06-14T01:35:21;23.80;59.00
8095;DHT22;4090;49.270;8.696;2023-06-14T01:38:03;23.70;59.60
8095;DHT22;4090;49.270;8.696;2023-06-14T01:40:48;23.70;59.30
8095;DHT22;4090;49.270;8.696;2023-06-14T01:43:33;23.70;59.10
8095;DHT22;4090;49.270;8.696;2023-06-14T01:46:19;23.70;59.40
8095;DHT22;4090;49.270;8.696;2023-06-14T01:49:01;23.70;59.30
8095;DHT22;4090;49.270;8.696;2023-06-14T01:51:43;23.70;59.40
8095;DHT22;4090;49.270;8.696;2023-06-14T01:54:25;23.70;59.20
8095;DHT22;4090;49.270;8.696;2023-06-14T01:57:09;23.60;59.40
8095;DHT22;4090;49.270;8.696;2023-06-14T01:59:52;23.60;59.40
8095;DHT22;4090;49.270;8.696;2023-06-14T02:02:34;23.50;59.40
8095;DHT22;4090;49.270;8.696;2023-06-14T02:05:16;23.60;59.60
8095;DHT22;4090;49.270;8.696;2023-06-14T02:07:59;23.50;59.70
8095;DHT22;4090;49.270;8.696;2023-06-14T02:10:41;23.50;59.80
8095;DHT22;4090;49.270;8.696;2023-06-14T02:13:24;23.50;60.40
8095;DHT22;4090;49.270;8.696;2023-06-14T02:16:06;23.50;59.50
8095;DHT22;4090;49.270;8.696;2023-06-14T02:18:48;23.50;59.60
8095;DHT22;4090;49.270;8.696;2023-06-14T02:21:31;23.50;59.50
8095;DHT22;4090;49.270;8.696;2023-06-14T02:24:13;23.50;59.50
8095;DHT22;4090;49.270;8.696;2023-06-14T02:26:55;23.40;59.50
8095;DHT22;4090;49.270;8.696;2023-06-14T02:29:39;23.40;59.50
8095;DHT22;4090;49.270;8.696;2023-06-14T02:32:20;23.40;59.60
8095;DHT22;4090;49.270;8.696;2023-06-14T02:35:03;23.40;59.70
8095;DHT22;4090;49.270;8.696;2023-06-14T02:37:46;23.40;59.80
8095;DHT22;4090;49.270;8.696;2023-06-14T02:40:28;23.30;59.70
8095;DHT22;4090;49.270;8.696;2023-06-14T02:43:11;23.30;59.90
8095;DHT22;4090;49.270;8.696;2023-06-14T02:45:55;23.30;59.80
8095;DHT22;4090;49.270;8.696;2023-06-14T02:48:36;23.30;59.70
8095;DHT22;4090;49.270;8.696;2023-06-14T02:51:18;23.30;60.00
8095;DHT22;4090;49.270;8.696;2023-06-14T02:54:00;23.20;60.10
8095;DHT22;4090;49.270;8.696;2023-06-14T02:56:42;23.20;60.30
8095;DHT22;4090;49.270;8.696;2023-06-14T02:59:24;23.20;60.20
8095;DHT22;4090;49.270;8.696;2023-06-14T03:02:10;23.20;60.40
8095;DHT22;4090;49.270;8.696;2023-06-14T03:04:52;23.20;60.40
8095;DHT22;4090;49.270;8.696;2023-06-14T03:07:35;23.10;60.60
8095;DHT22;4090;49.270;8.696;2023-06-14T03:10:21;23.10;60.70
8095;DHT22;4090;49.270;8.696;2023-06-14T03:13:05;23.10;61.00
8095;DHT22;4090;49.270;8.696;2023-06-14T03:15:48;23.10;60.90
8095;DHT22;4090;49.270;8.696;2023-06-14T03:18:33;23.10;61.10
8095;DHT22;4090;49.270;8.696;2023-06-14T03:21:16;23.10;61.20
8095;DHT22;4090;49.270;8.696;2023-06-14T03:23:59;23.00;61.10
8095;DHT22;4090;49.270;8.696;2023-06-14T03:26:43;23.00;61.20
8095;DHT22;4090;49.270;8.696;2023-06-14T03:29:25;22.90;61.30
8095;DHT22;4090;49.270;8.696;2023-06-14T03:32:08;22.90;61.30
8095;DHT22;4090;49.270;8.696;2023-06-14T03:34:54;22.90;61.60
8095;DHT22;4090;49.270;8.696;2023-06-14T03:37:38;22.80;61.60
8095;DHT22;4090;49.270;8.696;2023-06-14T03:40:21;22.80;62.10
8095;DHT22;4090;49.270;8.696;2023-06-14T03:43:08;22.80;61.90
8095;DHT22;4090;49.270;8.696;2023-06-14T03:45:51;22.80;62.30
8095;DHT22;4090;49.270;8.696;2023-06-14T03:48:34;22.70;62.50
8095;DHT22;4090;49.270;8.696;2023-06-14T03:51:18;22.70;62.90
8095;DHT22;4090;49.270;8.696;2023-06-14T03:54:00;22.70;63.00
8095;DHT22;4090;49.270;8.696;2023-06-14T03:56:42;22.60;63.90
8095;DHT22;4090;49.270;8.696;2023-06-14T03:59:25;22.60;63.90
8095;DHT22;4090;49.270;8.696;2023-06-14T04:02:07;22.60;63.40
8095;DHT22;4090;49.270;8.696;2023-06-14T04:04:50;22.60;64.00
8095;DHT22;4090;49.270;8.696;2023-06-14T04:07:34;22.60;64.10
8095;DHT22;4090;49.270;8.696;2023-06-14T04:10:21;22.50;64.30
8095;DHT22;4090;49.270;8.696;2023-06-14T04:13:02;22.60;65.00
8095;DHT22;4090;49.270;8.696;2023-06-14T04:15:45;22.50;65.70
8095;DHT22;4090;49.270;8.696;2023-06-14T04:18:31;22.40;66.00
8095;DHT22;4090;49.270;8.696;2023-06-14T04:21:13;22.40;66.00
8095;DHT22;4090;49.270;8.696;2023-06-14T04:23:57;22.40;66.70
8095;DHT22;4090;49.270;8.696;2023-06-14T04:26:44;22.30;67.10
8095;DHT22;4090;49.270;8.696;2023-06-14T04:29:29;22.30;66.80
8095;DHT22;4090;49.270;8.696;2023-06-14T04:32:16;22.30;67.70
8095;DHT22;4090;49.270;8.696;2023-06-14T04:34:59;22.20;67.80
8095;DHT22;4090;49.270;8.696;2023-06-14T04:37:43;22.20;67.30
8095;DHT22;4090;49.270;8.696;2023-06-14T04:40:28;22.20;67.40
8095;DHT22;4090;49.270;8.696;2023-06-14T04:43:10;22.30;67.30
8095;DHT22;4090;49.270;8.696;2023-06-14T04:45:55;22.30;66.80
8095;DHT22;4090;49.270;8.696;2023-06-14T04:48:38;22.30;67.30
8095;DHT22;4090;49.270;8.696;2023-06-14T04:51:24;22.30;67.30
8095;DHT22;4090;49.270;8.696;2023-06-14T04:54:11;22.30;67.60
8095;DHT22;4090;49.270;8.696;2023-06-14T04:56:56;22.30;66.80
8095;DHT22;4090;49.270;8.696;2023-06-14T04:59:40;22.30;66.50
8095;DHT22;4090;49.270;8.696;2023-06-14T05:02:22;22.30;66.60
8095;DHT22;4090;49.270;8.696;2023-06-14T05:05:06;22.30;66.70
8095;DHT22;4090;49.270;8.696;2023-06-14T05:07:48;22.30;66.20
8095;DHT22;4090;49.270;8.696;2023-06-14T05:10:30;22.30;66.40
8095;DHT22;4090;49.270;8.696;2023-06-14T05:13:13;22.30;67.30
8095;DHT22;4090;49.270;8.696;2023-06-14T05:15:55;22.30;67.70
8095;DHT22;4090;49.270;8.696;2023-06-14T05:18:37;22.30;67.30
8095;DHT22;4090;49.270;8.696;2023-06-14T05:21:20;22.30;67.20
8095;DHT22;4090;49.270;8.696;2023-06-14T05:24:02;22.30;68.20
8095;DHT22;4090;49.270;8.696;2023-06-14T05:26:45;22.30;67.50
8095;DHT22;4090;49.270;8.696;2023-06-14T05:29:28;22.30;68.20
8095;DHT22;4090;49.270;8.696;2023-06-14T05:32:10;22.40;69.10
8095;DHT22;4090;49.270;8.696;2023-06-14T05:34:52;22.40;67.80
8095;DHT22;4090;49.270;8.696;2023-06-14T05:37:34;22.40;67.60
8095;DHT22;4090;49.270;8.696;2023-06-14T05:40:16;22.40;67.80
8095;DHT22;4090;49.270;8.696;2023-06-14T05:42:58;22.40;68.80
8095;DHT22;4090;49.270;8.696;2023-06-14T05:45:41;22.40;68.40
8095;DHT22;4090;49.270;8.696;2023-06-14T05:48:23;22.40;68.10
8095;DHT22;4090;49.270;8.696;2023-06-14T05:51:05;22.40;68.20
8095;DHT22;4090;49.270;8.696;2023-06-14T05:53:49;22.40;68.50
8095;DHT22;4090;49.270;8.696;2023-06-14T05:56:31;22.40;68.60
8095;DHT22;4090;49.270;8.696;2023-06-14T05:59:13;22.40;68.50
8095;DHT22;4090;49.270;8.696;2023-06-14T06:01:56;22.40;68.80
8095;DHT22;4090;49.270;8.696;2023-06-14T06:04:38;22.40;68.70
8095;DHT22;4090;49.270;8.696;2023-06-14T06:07:20;22.50;68.90
8095;DHT22;4090;49.270;8.696;2023-06-14T06:10:03;22.50;69.10
8095;DHT22;4090;49.270;8.696;2023-06-14T06:12:45;22.50;68.90
8095;DHT22;4090;49.270;8.696;2023-06-14T06:15:28;22.50;68.90
8095;DHT22;4090;49.270;8.696;2023-06-14T06:18:11;22.60;69.50
8095;DHT22;4090;49.270;8.696;2023-06-14T06:20:53;22.60;69.40
8095;DHT22;4090;49.270;8.696;2023-06-14T06:23:35;22.60;69.10
8095;DHT22;4090;49.270;8.696;2023-06-14T06:26:17;22.60;69.10
8095;DHT22;4090;49.270;8.696;2023-06-14T06:28:59;22.60;69.10
8095;DHT22;4090;49.270;8.696;2023-06-14T06:31:41;22.60;69.40
8095;DHT22;4090;49.270;8.696;2023-06-14T06:34:24;22.60;69.40
8095;DHT22;4090;49.270;8.696;2023-06-14T06:37:06;22.60;69.70
8095;DHT22;4090;49.270;8.696;2023-06-14T06:39:48;22.60;69.80
8095;DHT22;4090;49.270;8.696;2023-06-14T06:42:30;22.60;69.90
8095;DHT22;4090;49.270;8.696;2023-06-14T06:45:13;22.60;70.20
8095;DHT22;4090;49.270;8.696;2023-06-14T06:47:55;22.60;70.50
8095;DHT22;4090;49.270;8.696;2023-06-14T06:50:38;22.60;70.60
8095;DHT22;4090;49.270;8.696;2023-06-14T06:53:20;22.60;70.60
8095;DHT22;4090;49.270;8.696;2023-06-14T06:56:02;22.60;70.60
8095;DHT22;4090;49.270;8.696;2023-06-14T06:58:44;22.60;71.00
8095;DHT22;4090;49.270;8.696;2023-06-14T07:01:26;22.60;72.00
8095;DHT22;4090;49.270;8.696;2023-06-14T07:04:09;22.70;70.90
8095;DHT22;4090;49.270;8.696;2023-06-14T07:06:52;22.70;71.00
8095;DHT22;4090;49.270;8.696;2023-06-14T07:09:34;22.70;71.20
8095;DHT22;4090;49.270;8.696;2023-06-14T07:12:16;22.70;71.20
8095;DHT22;4090;49.270;8.696;2023-06-14T07:14:58;22.70;71.40
8095;DHT22;4090;49.270;8.696;2023-06-14T07:17:40;22.70;71.90
8095;DHT22;4090;49.270;8.696;2023-06-14T07:20:23;22.70;71.60
8095;DHT22;4090;49.270;8.696;2023-06-14T07:23:06;22.80;71.30
8095;DHT22;4090;49.270;8.696;2023-06-14T07:25:48;22.80;71.20
8095;DHT22;4090;49.270;8.696;2023-06-14T07:28:30;22.80;71.30
8095;DHT22;4090;49.270;8.696;2023-06-14T07:31:12;22.80;71.70
8095;DHT22;4090;49.270;8.696;2023-06-14T07:33:54;22.80;71.20
8095;DHT22;4090;49.270;8.696;2023-06-14T07:36:36;22.80;72.10
8095;DHT22;4090;49.270;8.696;2023-06-14T07:39:20;22.80;70.60
8095;DHT22;4090;49.270;8.696;2023-06-14T07:42:02;22.80;70.40
8095;DHT22;4090;49.270;8.696;2023-06-14T07:44:44;22.90;70.60
8095;DHT22;4090;49.270;8.696;2023-06-14T07:47:26;22.90;70.70
8095;DHT22;4090;49.270;8.696;2023-06-14T07:50:09;22.90;70.90
8095;DHT22;4090;49.270;8.696;2023-06-14T07:52:52;22.90;71.30
8095;DHT22;4090;49.270;8.696;2023-06-14T07:55:35;22.90;70.90
8095;DHT22;4090;49.270;8.696;2023-06-14T07:58:19;22.90;71.00
8095;DHT22;4090;49.270;8.696;2023-06-14T08:01:01;22.90;71.20
8095;DHT22;4090;49.270;8.696;2023-06-14T08:03:46;23.00;71.00
8095;DHT22;4090;49.270;8.696;2023-06-14T08:06:28;23.00;70.70
8095;DHT22;4090;49.270;8.696;2023-06-14T08:09:11;23.10;70.80
8095;DHT22;4090;49.270;8.696;2023-06-14T08:11:55;23.10;70.00
8095;DHT22;4090;49.270;8.696;2023-06-14T08:14:38;23.10;70.40
8095;DHT22;4090;49.270;8.696;2023-06-14T08:17:20;23.10;70.30
8095;DHT22;4090;49.270;8.696;2023-06-14T08:20:03;23.10;69.90
8095;DHT22;4090;49.270;8.696;2023-06-14T08:22:46;23.10;70.60
8095;DHT22;4090;49.270;8.696;2023-06-14T08:25:28;23.20;71.00
8095;DHT22;4090;49.270;8.696;2023-06-14T08:28:12;23.20;70.50
8095;DHT22;4090;49.270;8.696;2023-06-14T08:30:53;23.20;70.40
8095;DHT22;4090;49.270;8.696;2023-06-14T08:33:36;23.20;70.20
8095;DHT22;4090;49.270;8.696;2023-06-14T08:36:18;23.20;70.00
8095;DHT22;4090;49.270;8.696;2023-06-14T08:39:00;23.20;70.60
8095;DHT22;4090;49.270;8.696;2023-06-14T08:41:43;23.20;70.90
8095;DHT22;4090;49.270;8.696;2023-06-14T08:44:28;23.30;70.20
8095;DHT22;4090;49.270;8.696;2023-06-14T08:47:10;23.30;70.30
8095;DHT22;4090;49.270;8.696;2023-06-14T08:49:55;23.30;70.40
8095;DHT22;4090;49.270;8.696;2023-06-14T08:52:39;23.40;69.60
8095;DHT22;4090;49.270;8.696;2023-06-14T08:55:27;23.40;70.00
8095;DHT22;4090;49.270;8.696;2023-06-14T08:58:09;23.40;70.00
8095;DHT22;4090;49.270;8.696;2023-06-14T09:00:57;23.40;69.70
8095;DHT22;4090;49.270;8.696;2023-06-14T09:03:40;23.50;70.20
8095;DHT22;4090;49.270;8.696;2023-06-14T09:06:22;23.50;69.60
8095;DHT22;4090;49.270;8.696;2023-06-14T09:09:05;23.50;68.80
8095;DHT22;4090;49.270;8.696;2023-06-14T09:11:48;23.50;68.70
8095;DHT22;4090;49.270;8.696;2023-06-14T09:14:30;23.60;69.60
8095;DHT22;4090;49.270;8.696;2023-06-14T09:17:15;23.50;71.20
8095;DHT22;4090;49.270;8.696;2023-06-14T09:19:58;23.60;69.30
8095;DHT22;4090;49.270;8.696;2023-06-14T09:22:40;23.70;70.10
8095;DHT22;4090;49.270;8.696;2023-06-14T09:25:22;23.70;68.90
8095;DHT22;4090;49.270;8.696;2023-06-14T09:28:06;23.70;67.90
8095;DHT22;4090;49.270;8.696;2023-06-14T09:30:48;23.70;68.90
8095;DHT22;4090;49.270;8.696;2023-06-14T09:33:32;23.70;68.70
8095;DHT22;4090;49.270;8.696;2023-06-14T09:36:16;23.80;68.70
8095;DHT22;4090;49.270;8.696;2023-06-14T09:38:59;23.80;68.90
8095;DHT22;4090;49.270;8.696;2023-06-14T09:41:41;23.80;69.90
8095;DHT22;4090;49.270;8.696;2023-06-14T09:44:25;23.90;70.20
8095;DHT22;4090;49.270;8.696;2023-06-14T09:47:09;23.90;69.40
8095;DHT22;4090;49.270;8.696;2023-06-14T09:49:52;23.90;68.30
8095;DHT22;4090;49.270;8.696;2023-06-14T09:52:35;24.00;66.90
8095;DHT22;4090;49.270;8.696;2023-06-14T09:55:18;24.00;68.20
8095;DHT22;4090;49.270;8.696;2023-06-14T09:58:02;24.00;68.80
8095;DHT22;4090;49.270;8.696;2023-06-14T10:00:47;24.10;69.40
8095;DHT22;4090;49.270;8.696;2023-06-14T10:03:32;24.10;68.40
8095;DHT22;4090;49.270;8.696;2023-06-14T10:06:16;24.10;68.80
8095;DHT22;4090;49.270;8.696;2023-06-14T10:08:59;24.20;68.60
8095;DHT22;4090;49.270;8.696;2023-06-14T10:11:41;24.20;68.90
8095;DHT22;4090;49.270;8.696;2023-06-14T10:14:26;24.20;68.20
8095;DHT22;4090;49.270;8.696;2023-06-14T10:17:10;24.30;66.90
8095;DHT22;4090;49.270;8.696;2023-06-14T10:19:57;24.40;66.30
8095;DHT22;4090;49.270;8.696;2023-06-14T10:22:50;24.50;66.20
8095;DHT22;4090;49.270;8.696;2023-06-14T10:25:33;24.50;66.80
8095;DHT22;4090;49.270;8.696;2023-06-14T10:28:16;24.70;65.20
8095;DHT22;4090;49.270;8.696;2023-06-14T10:31:05;24.70;64.90
8095;DHT22;4090;49.270;8.696;2023-06-14T10:33:56;24.70;64.40
8095;DHT22;4090;49.270;8.696;2023-06-14T10:36:41;24.80;63.40
8095;DHT22;4090;49.270;8.696;2023-06-14T10:39:25;24.90;65.10
8095;DHT22;4090;49.270;8.696;2023-06-14T10:42:07;24.90;65.10
8095;DHT22;4090;49.270;8.696;2023-06-14T10:44:50;25.00;63.80
8095;DHT22;4090;49.270;8.696;2023-06-14T10:47:34;25.10;63.30
8095;DHT22;4090;49.270;8.696;2023-06-14T10:50:27;25.20;60.80
8095;DHT22;4090;49.270;8.696;2023-06-14T10:53:21;25.20;61.40
8095;DHT22;4090;49.270;8.696;2023-06-14T10:56:08;25.30;59.60
8095;DHT22;4090;49.270;8.696;2023-06-14T10:58:52;25.30;60.20
8095;DHT22;4090;49.270;8.696;2023-06-14T11:01:40;25.40;58.90
8095;DHT22;4090;49.270;8.696;2023-06-14T11:04:30;25.30;61.40
8095;DHT22;4090;49.270;8.696;2023-06-14T11:07:28;25.30;61.20
8095;DHT22;4090;49.270;8.696;2023-06-14T11:10:22;25.40;59.90
8095;DHT22;4090;49.270;8.696;2023-06-14T11:13:09;25.60;59.00
8095;DHT22;4090;49.270;8.696;2023-06-14T11:15:51;25.70;60.00
8095;DHT22;4090;49.270;8.696;2023-06-14T11:18:34;25.70;59.70
8095;DHT22;4090;49.270;8.696;2023-06-14T11:21:18;25.80;58.20
8095;DHT22;4090;49.270;8.696;2023-06-14T11:24:00;25.80;58.70
8095;DHT22;4090;49.270;8.696;2023-06-14T11:26:42;25.90;60.50
8095;DHT22;4090;49.270;8.696;2023-06-14T11:29:25;25.80;61.80
8095;DHT22;4090;49.270;8.696;2023-06-14T11:32:07;25.80;61.20
8095;DHT22;4090;49.270;8.696;2023-06-14T11:34:52;25.90;60.30
8095;DHT22;4090;49.270;8.696;2023-06-14T11:37:36;25.90;60.80
8095;DHT22;4090;49.270;8.696;2023-06-14T11:40:19;26.10;59.50
8095;DHT22;4090;49.270;8.696;2023-06-14T11:43:02;26.30;58.90
8095;DHT22;4090;49.270;8.696;2023-06-14T11:45:49;26.50;58.00
8095;DHT22;4090;49.270;8.696;2023-06-14T11:48:38;26.40;57.90
8095;DHT22;4090;49.270;8.696;2023-06-14T11:51:21;26.40;59.10
8095;DHT22;4090;49.270;8.696;2023-06-14T11:54:03;26.50;59.10
8095;DHT22;4090;49.270;8.696;2023-06-14T11:56:46;26.50;58.70
8095;DHT22;4090;49.270;8.696;2023-06-14T11:59:28;26.50;58.60
8095;DHT22;4090;49.270;8.696;2023-06-14T12:02:15;26.60;58.90
8095;DHT22;4090;49.270;8.696;2023-06-14T12:05:04;26.80;57.70
8095;DHT22;4090;49.270;8.696;2023-06-14T12:07:48;26.90;57.90
8095;DHT22;4090;49.270;8.696;2023-06-14T12:10:39;26.90;56.70
8095;DHT22;4090;49.270;8.696;2023-06-14T12:13:25;26.90;57.60
8095;DHT22;4090;49.270;8.696;2023-06-14T12:16:08;27.00;57.80
8095;DHT22;4090;49.270;8.696;2023-06-14T12:18:53;27.10;58.30
8095;DHT22;4090;49.270;8.696;2023-06-14T12:21:36;27.20;56.30
8095;DHT22;4090;49.270;8.696;2023-06-14T12:24:19;27.30;56.70
8095;DHT22;4090;49.270;8.696;2023-06-14T12:27:01;27.20;57.60
8095;DHT22;4090;49.270;8.696;2023-06-14T12:29:44;27.30;58.60
8095;DHT22;4090;49.270;8.696;2023-06-14T12:32:26;27.30;58.10
8095;DHT22;4090;49.270;8.696;2023-06-14T12:35:09;27.40;57.40
8095;DHT22;4090;49.270;8.696;2023-06-14T12:37:51;27.40;58.20
8095;DHT22;4090;49.270;8.696;2023-06-14T12:40:33;27.60;54.00
8095;DHT22;4090;49.270;8.696;2023-06-14T12:43:16;27.70;52.70
8095;DHT22;4090;49.270;8.696;2023-06-14T12:45:58;27.80;55.30
8095;DHT22;4090;49.270;8.696;2023-06-14T12:48:39;27.90;56.20
8095;DHT22;4090;49.270;8.696;2023-06-14T12:51:23;27.90;56.50
8095;DHT22;4090;49.270;8.696;2023-06-14T12:54:06;28.00;55.00
8095;DHT22;4090;49.270;8.696;2023-06-14T12:56:48;28.10;55.40
8095;DHT22;4090;49.270;8.696;2023-06-14T12:59:31;28.20;54.60
8095;DHT22;4090;49.270;8.696;2023-06-14T13:02:15;28.30;54.20
8095;DHT22;4090;49.270;8.696;2023-06-14T13:04:58;28.40;54.00
8095;DHT22;4090;49.270;8.696;2023-06-14T13:07:42;28.40;54.20
8095;DHT22;4090;49.270;8.696;2023-06-14T13:10:26;28.40;54.60
8095;DHT22;4090;49.270;8.696;2023-06-14T13:13:08;28.40;54.30
8095;DHT22;4090;49.270;8.696;2023-06-14T13:15:50;28.40;55.20
8095;DHT22;4090;49.270;8.696;2023-06-14T13:18:32;28.40;54.10
8095;DHT22;4090;49.270;8.696;2023-06-14T13:21:14;28.60;52.10
8095;DHT22;4090;49.270;8.696;2023-06-14T13:23:57;28.60;53.50
8095;DHT22;4090;49.270;8.696;2023-06-14T13:26:39;28.60;53.90
8095;DHT22;4090;49.270;8.696;2023-06-14T13:29:21;28.70;53.90
8095;DHT22;4090;49.270;8.696;2023-06-14T13:32:03;28.70;55.30
8095;DHT22;4090;49.270;8.696;2023-06-14T13:34:45;28.70;54.80
8095;DHT22;4090;49.270;8.696;2023-06-14T13:37:27;28.70;54.40
8095;DHT22;4090;49.270;8.696;2023-06-14T13:40:11;28.70;55.10
8095;DHT22;4090;49.270;8.696;2023-06-14T13:42:53;28.70;54.20
8095;DHT22;4090;49.270;8.696;2023-06-14T13:45:35;28.70;55.80
8095;DHT22;4090;49.270;8.696;2023-06-14T13:48:17;28.70;54.40
8095;DHT22;4090;49.270;8.696;2023-06-14T13:50:59;28.80;53.00
8095;DHT22;4090;49.270;8.696;2023-06-14T13:53:41;28.80;55.60
8095;DHT22;4090;49.270;8.696;2023-06-14T13:56:24;28.70;55.20
8095;DHT22;4090;49.270;8.696;2023-06-14T13:59:06;28.80;54.30
8095;DHT22;4090;49.270;8.696;2023-06-14T14:01:48;28.80;55.40
8095;DHT22;4090;49.270;8.696;2023-06-14T14:04:30;28.80;55.30
8095;DHT22;4090;49.270;8.696;2023-06-14T14:07:12;29.00;55.30
8095;DHT22;4090;49.270;8.696;2023-06-14T14:09:54;29.00;55.40
8095;DHT22;4090;49.270;8.696;2023-06-14T14:12:39;29.00;54.70
8095;DHT22;4090;49.270;8.696;2023-06-14T14:15:21;29.00;55.20
8095;DHT22;4090;49.270;8.696;2023-06-14T14:18:03;29.00;55.50
8095;DHT22;4090;49.270;8.696;2023-06-14T14:20:46;28.90;55.50
8095;DHT22;4090;49.270;8.696;2023-06-14T14:23:29;28.90;53.70
8095;DHT22;4090;49.270;8.696;2023-06-14T14:26:11;28.90;52.90
8095;DHT22;4090;49.270;8.696;2023-06-14T14:28:54;28.90;52.70
8095;DHT22;4090;49.270;8.696;2023-06-14T14:31:36;28.90;53.00
8095;DHT22;4090;49.270;8.696;2023-06-14T14:34:18;28.90;52.60
8095;DHT22;4090;49.270;8.696;2023-06-14T14:36:59;29.00;53.40
8095;DHT22;4090;49.270;8.696;2023-06-14T14:39:41;28.90;53.60
8095;DHT22;4090;49.270;8.696;2023-06-14T14:42:23;28.90;52.50
8095;DHT22;4090;49.270;8.696;2023-06-14T14:45:09;29.00;53.30
8095;DHT22;4090;49.270;8.696;2023-06-14T14:47:51;29.20;53.80
8095;DHT22;4090;49.270;8.696;2023-06-14T14:50:33;29.40;52.80
8095;DHT22;4090;49.270;8.696;2023-06-14T14:53:15;29.50;52.90
8095;DHT22;4090;49.270;8.696;2023-06-14T14:55:57;29.40;53.80
8095;DHT22;4090;49.270;8.696;2023-06-14T14:58:39;29.40;52.90
8095;DHT22;4090;49.270;8.696;2023-06-14T15:01:22;29.40;53.00
8095;DHT22;4090;49.270;8.696;2023-06-14T15:04:04;29.40;52.90
8095;DHT22;4090;49.270;8.696;2023-06-14T15:06:46;29.50;53.60
8095;DHT22;4090;49.270;8.696;2023-06-14T15:09:28;29.40;51.10
8095;DHT22;4090;49.270;8.696;2023-06-14T15:12:10;29.30;53.20
8095;DHT22;4090;49.270;8.696;2023-06-14T15:14:53;29.30;53.60
8095;DHT22;4090;49.270;8.696;2023-06-14T15:17:36;29.30;54.00
8095;DHT22;4090;49.270;8.696;2023-06-14T15:20:18;29.20;51.70
8095;DHT22;4090;49.270;8.696;2023-06-14T15:23:00;29.20;53.70
8095;DHT22;4090;49.270;8.696;2023-06-14T15:25:41;29.10;53.80
8095;DHT22;4090;49.270;8.696;2023-06-14T15:28:23;29.10;54.20
8095;DHT22;4090;49.270;8.696;2023-06-14T15:31:08;29.10;55.20
8095;DHT22;4090;49.270;8.696;2023-06-14T15:33:51;29.30;52.80
8095;DHT22;4090;49.270;8.696;2023-06-14T15:36:33;29.40;53.10
8095;DHT22;4090;49.270;8.696;2023-06-14T15:39:15;29.50;53.60
8095;DHT22;4090;49.270;8.696;2023-06-14T15:41:57;29.50;53.60
8095;DHT22;4090;49.270;8.696;2023-06-14T15:44:39;29.60;54.40
8095;DHT22;4090;49.270;8.696;2023-06-14T15:47:23;29.60;54.80
8095;DHT22;4090;49.270;8.696;2023-06-14T15:50:06;29.60;53.50
8095;DHT22;4090;49.270;8.696;2023-06-14T15:52:49;29.60;53.20
8095;DHT22;4090;49.270;8.696;2023-06-14T15:55:31;29.60;53.80
8095;DHT22;4090;49.270;8.696;2023-06-14T15:58:13;29.60;54.40
8095;DHT22;4090;49.270;8.696;2023-06-14T16:00:55;29.70;53.40
8095;DHT22;4090;49.270;8.696;2023-06-14T16:03:37;29.80;52.30
8095;DHT22;4090;49.270;8.696;2023-06-14T16:06:20;29.80;52.60
8095;DHT22;4090;49.270;8.696;2023-06-14T16:09:02;29.90;51.90
8095;DHT22;4090;49.270;8.696;2023-06-14T16:11:44;30.00;52.90
8095;DHT22;4090;49.270;8.696;2023-06-14T16:14:26;30.00;52.80
8095;DHT22;4090;49.270;8.696;2023-06-14T16:17:08;30.10;51.90
8095;DHT22;4090;49.270;8.696;2023-06-14T16:19:50;30.20;51.70
8095;DHT22;4090;49.270;8.696;2023-06-14T16:22:33;30.20;51.70
8095;DHT22;4090;49.270;8.696;2023-06-14T16:25:15;30.20;52.60
8095;DHT22;4090;49.270;8.696;2023-06-14T16:27:57;30.10;52.60
8095;DHT22;4090;49.270;8.696;2023-06-14T16:30:39;30.10;52.30
8095;DHT22;4090;49.270;8.696;2023-06-14T16:33:21;30.00;53.80
8095;DHT22;4090;49.270;8.696;2023-06-14T16:36:03;30.10;53.20
8095;DHT22;4090;49.270;8.696;2023-06-14T16:38:46;30.20;52.10
8095;DHT22;4090;49.270;8.696;2023-06-14T16:41:28;30.20;51.40
8095;DHT22;4090;49.270;8.696;2023-06-14T16:44:10;30.20;51.80
8095;DHT22;4090;49.270;8.696;2023-06-14T16:46:52;30.20;51.20
8095;DHT22;4090;49.270;8.696;2023-06-14T16:49:35;30.30;50.90
8095;DHT22;4090;49.270;8.696;2023-06-14T16:52:18;30.30;51.60
8095;DHT22;4090;49.270;8.696;2023-06-14T16:55:01;30.20;52.60
8095;DHT22;4090;49.270;8.696;2023-06-14T16:57:43;30.20;51.00
8095;DHT22;4090;49.270;8.696;2023-06-14T17:00:25;30.20;50.80
8095;DHT22;4090;49.270;8.696;2023-06-14T17:03:07;30.20;50.70
8095;DHT22;4090;49.270;8.696;2023-06-14T17:05:56;30.20;52.10
8095;DHT22;4090;49.270;8.696;2023-06-14T17:08:38;30.20;51.00
8095;DHT22;4090;49.270;8.696;2023-06-14T17:11:21;30.20;51.30
8095;DHT22;4090;49.270;8.696;2023-06-14T17:14:03;30.20;50.50
8095;DHT22;4090;49.270;8.696;2023-06-14T17:16:46;30.10;51.50
8095;DHT22;4090;49.270;8.696;2023-06-14T17:19:28;30.00;52.20
8095;DHT22;4090;49.270;8.696;2023-06-14T17:22:10;30.00;52.10
8095;DHT22;4090;49.270;8.696;2023-06-14T17:24:52;30.00;51.30
8095;DHT22;4090;49.270;8.696;2023-06-14T17:27:35;29.90;51.80
8095;DHT22;4090;49.270;8.696;2023-06-14T17:30:17;29.80;50.70
8095;DHT22;4090;49.270;8.696;2023-06-14T17:32:59;29.80;51.70
8095;DHT22;4090;49.270;8.696;2023-06-14T17:35:41;29.80;51.70
8095;DHT22;4090;49.270;8.696;2023-06-14T17:38:23;29.70;51.60
8095;DHT22;4090;49.270;8.696;2023-06-14T17:41:07;29.60;51.80
8095;DHT22;4090;49.270;8.696;2023-06-14T17:43:51;29.60;51.90
8095;DHT22;4090;49.270;8.696;2023-06-14T17:46:33;29.50;52.30